Terminal Aerodrome Forecast
Issued by NWS Billings, MT

Home | Current Version | Previous Version | Graphics & Text | Print | Product List | Glossary On
Versions: 1 2 3 4 5 6 7 8 9 10 11 12 13 14 15 16 17 18 19 20 21 22 23 24 25 26 27
000
FTUS45 KBYZ 280520
TAFMLS
TAF
KMLS 280520Z 2806/0106 32008KT P6SM SCT200
     FM280700 32008KT P6SM SCT060 BKN100
     FM281100 31008KT P6SM BKN050
     FM281900 30008KT P6SM SCT050=

USA.gov is the U.S. government's official web portal to all federal, state and local government web resources and services.